sensor_id;sensor_type;location;lat;lon;timestamp;P1;durP1;ratioP1;P2;durP2;ratioP2
19030;SDS011;9648;51.130;13.978;2023-01-10T00:01:44;2.25;;;1.40;;
19030;SDS011;9648;51.130;13.978;2023-01-10T00:04:11;3.15;;;1.80;;
19030;SDS011;9648;51.130;13.978;2023-01-10T00:06:37;2.77;;;1.60;;
19030;SDS011;9648;51.130;13.978;2023-01-10T00:09:04;3.30;;;1.60;;
19030;SDS011;9648;51.130;13.978;2023-01-10T00:11:35;3.17;;;1.70;;
19030;SDS011;9648;51.130;13.978;2023-01-10T00:14:19;2.42;;;1.60;;
19030;SDS011;9648;51.130;13.978;2023-01-10T00:16:46;2.83;;;1.80;;
19030;SDS011;9648;51.130;13.978;2023-01-10T00:19:13;3.00;;;1.73;;
19030;SDS011;9648;51.130;13.978;2023-01-10T00:21:39;2.70;;;1.80;;
19030;SDS011;9648;51.130;13.978;2023-01-10T00:24:06;5.80;;;2.00;;
19030;SDS011;9648;51.130;13.978;2023-01-10T00:26:44;2.60;;;1.95;;
19030;SDS011;9648;51.130;13.978;2023-01-10T00:29:15;2.75;;;1.85;;
19030;SDS011;9648;51.130;13.978;2023-01-10T00:31:42;2.95;;;2.00;;
19030;SDS011;9648;51.130;13.978;2023-01-10T00:34:09;3.67;;;1.97;;
19030;SDS011;9648;51.130;13.978;2023-01-10T00:36:35;3.78;;;2.10;;
19030;SDS011;9648;51.130;13.978;2023-01-10T00:39:02;2.88;;;1.83;;
19030;SDS011;9648;51.130;13.978;2023-01-10T00:41:35;3.60;;;1.90;;
19030;SDS011;9648;51.130;13.978;2023-01-10T00:44:20;3.88;;;1.80;;
19030;SDS011;9648;51.130;13.978;2023-01-10T00:46:47;5.37;;;3.10;;
19030;SDS011;9648;51.130;13.978;2023-01-10T00:49:14;3.47;;;2.63;;
19030;SDS011;9648;51.130;13.978;2023-01-10T00:51:41;5.88;;;2.85;;
19030;SDS011;9648;51.130;13.978;2023-01-10T00:54:07;4.55;;;2.80;;
19030;SDS011;9648;51.130;13.978;2023-01-10T00:56:34;3.85;;;2.40;;
19030;SDS011;9648;51.130;13.978;2023-01-10T00:59:01;4.28;;;2.60;;
19030;SDS011;9648;51.130;13.978;2023-01-10T01:01:29;5.28;;;2.60;;
19030;SDS011;9648;51.130;13.978;2023-01-10T01:03:56;5.25;;;2.70;;
19030;SDS011;9648;51.130;13.978;2023-01-10T01:06:23;4.47;;;2.47;;
19030;SDS011;9648;51.130;13.978;2023-01-10T01:08:50;4.57;;;2.50;;
19030;SDS011;9648;51.130;13.978;2023-01-10T01:11:17;3.67;;;2.38;;
19030;SDS011;9648;51.130;13.978;2023-01-10T01:13:46;4.43;;;2.57;;
19030;SDS011;9648;51.130;13.978;2023-01-10T01:16:13;5.82;;;2.60;;
19030;SDS011;9648;51.130;13.978;2023-01-10T01:18:41;4.47;;;2.67;;
19030;SDS011;9648;51.130;13.978;2023-01-10T01:21:08;5.30;;;2.55;;
19030;SDS011;9648;51.130;13.978;2023-01-10T01:23:34;4.45;;;2.42;;
19030;SDS011;9648;51.130;13.978;2023-01-10T01:26:01;4.10;;;2.65;;
19030;SDS011;9648;51.130;13.978;2023-01-10T01:28:29;4.80;;;2.78;;
19030;SDS011;9648;51.130;13.978;2023-01-10T01:30:56;3.50;;;2.35;;
19030;SDS011;9648;51.130;13.978;2023-01-10T01:33:26;3.93;;;2.67;;
19030;SDS011;9648;51.130;13.978;2023-01-10T01:35:54;3.70;;;2.40;;
19030;SDS011;9648;51.130;13.978;2023-01-10T01:38:20;3.92;;;2.45;;
19030;SDS011;9648;51.130;13.978;2023-01-10T01:40:47;3.40;;;2.40;;
19030;SDS011;9648;51.130;13.978;2023-01-10T01:43:21;4.82;;;2.90;;
19030;SDS011;9648;51.130;13.978;2023-01-10T01:45:50;7.25;;;2.55;;
19030;SDS011;9648;51.130;13.978;2023-01-10T01:48:18;5.07;;;2.50;;
19030;SDS011;9648;51.130;13.978;2023-01-10T01:50:54;4.95;;;2.65;;
19030;SDS011;9648;51.130;13.978;2023-01-10T01:53:30;4.45;;;2.70;;
19030;SDS011;9648;51.130;13.978;2023-01-10T01:56:00;4.20;;;2.30;;
19030;SDS011;9648;51.130;13.978;2023-01-10T01:58:31;5.40;;;2.88;;
19030;SDS011;9648;51.130;13.978;2023-01-10T02:01:02;4.45;;;2.33;;
19030;SDS011;9648;51.130;13.978;2023-01-10T02:03:29;4.80;;;2.90;;
19030;SDS011;9648;51.130;13.978;2023-01-10T02:05:58;4.70;;;2.83;;
19030;SDS011;9648;51.130;13.978;2023-01-10T02:08:25;7.47;;;3.80;;
19030;SDS011;9648;51.130;13.978;2023-01-10T02:10:52;5.27;;;2.90;;
19030;SDS011;9648;51.130;13.978;2023-01-10T02:13:23;5.10;;;2.90;;
19030;SDS011;9648;51.130;13.978;2023-01-10T02:15:51;4.17;;;2.80;;
19030;SDS011;9648;51.130;13.978;2023-01-10T02:18:18;4.82;;;2.50;;
19030;SDS011;9648;51.130;13.978;2023-01-10T02:20:52;4.68;;;2.47;;
19030;SDS011;9648;51.130;13.978;2023-01-10T02:23:33;5.85;;;2.90;;
19030;SDS011;9648;51.130;13.978;2023-01-10T02:26:27;4.80;;;2.40;;
19030;SDS011;9648;51.130;13.978;2023-01-10T02:32:36;4.65;;;2.63;;
19030;SDS011;9648;51.130;13.978;2023-01-10T02:35:10;4.75;;;2.80;;
19030;SDS011;9648;51.130;13.978;2023-01-10T02:37:50;5.38;;;2.80;;
19030;SDS011;9648;51.130;13.978;2023-01-10T02:40:25;4.80;;;2.80;;
19030;SDS011;9648;51.130;13.978;2023-01-10T02:42:59;6.43;;;3.03;;
19030;SDS011;9648;51.130;13.978;2023-01-10T02:45:35;4.35;;;2.45;;
19030;SDS011;9648;51.130;13.978;2023-01-10T02:48:10;4.25;;;2.65;;
19030;SDS011;9648;51.130;13.978;2023-01-10T02:50:42;7.05;;;2.83;;
19030;SDS011;9648;51.130;13.978;2023-01-10T02:53:15;6.55;;;2.97;;
19030;SDS011;9648;51.130;13.978;2023-01-10T02:55:54;4.45;;;2.67;;
19030;SDS011;9648;51.130;13.978;2023-01-10T02:58:52;8.30;;;3.17;;
19030;SDS011;9648;51.130;13.978;2023-01-10T03:01:36;6.43;;;3.13;;
19030;SDS011;9648;51.130;13.978;2023-01-10T03:04:13;6.03;;;3.25;;
19030;SDS011;9648;51.130;13.978;2023-01-10T03:06:51;5.10;;;2.70;;
19030;SDS011;9648;51.130;13.978;2023-01-10T03:09:25;5.32;;;3.00;;
19030;SDS011;9648;51.130;13.978;2023-01-10T03:12:00;6.47;;;3.03;;
19030;SDS011;9648;51.130;13.978;2023-01-10T03:14:33;6.87;;;4.03;;
19030;SDS011;9648;51.130;13.978;2023-01-10T03:17:03;4.97;;;2.95;;
19030;SDS011;9648;51.130;13.978;2023-01-10T03:19:34;6.60;;;3.67;;
19030;SDS011;9648;51.130;13.978;2023-01-10T03:22:04;6.65;;;3.25;;
19030;SDS011;9648;51.130;13.978;2023-01-10T03:24:35;5.78;;;3.92;;
19030;SDS011;9648;51.130;13.978;2023-01-10T03:27:06;5.47;;;3.35;;
19030;SDS011;9648;51.130;13.978;2023-01-10T03:29:41;7.13;;;3.10;;
19030;SDS011;9648;51.130;13.978;2023-01-10T03:32:16;6.05;;;3.40;;
19030;SDS011;9648;51.130;13.978;2023-01-10T03:34:49;7.28;;;3.50;;
19030;SDS011;9648;51.130;13.978;2023-01-10T03:37:16;6.65;;;3.55;;
19030;SDS011;9648;51.130;13.978;2023-01-10T03:39:51;8.02;;;3.95;;
19030;SDS011;9648;51.130;13.978;2023-01-10T03:42:25;6.90;;;3.97;;
19030;SDS011;9648;51.130;13.978;2023-01-10T03:45:19;5.97;;;3.70;;
19030;SDS011;9648;51.130;13.978;2023-01-10T03:47:52;6.72;;;4.07;;
19030;SDS011;9648;51.130;13.978;2023-01-10T03:50:23;5.72;;;4.10;;
19030;SDS011;9648;51.130;13.978;2023-01-10T03:52:51;5.70;;;3.83;;
19030;SDS011;9648;51.130;13.978;2023-01-10T03:55:19;6.05;;;3.92;;
19030;SDS011;9648;51.130;13.978;2023-01-10T03:57:47;9.07;;;4.25;;
19030;SDS011;9648;51.130;13.978;2023-01-10T04:00:15;7.43;;;4.40;;
19030;SDS011;9648;51.130;13.978;2023-01-10T04:02:42;7.20;;;4.10;;
19030;SDS011;9648;51.130;13.978;2023-01-10T04:05:09;7.85;;;4.28;;
19030;SDS011;9648;51.130;13.978;2023-01-10T04:07:38;7.40;;;4.20;;
19030;SDS011;9648;51.130;13.978;2023-01-10T04:10:05;6.28;;;4.05;;
19030;SDS011;9648;51.130;13.978;2023-01-10T04:12:32;8.20;;;4.20;;
19030;SDS011;9648;51.130;13.978;2023-01-10T04:14:59;7.35;;;4.18;;
19030;SDS011;9648;51.130;13.978;2023-01-10T04:17:27;8.23;;;4.38;;
19030;SDS011;9648;51.130;13.978;2023-01-10T04:19:53;9.20;;;5.50;;
19030;SDS011;9648;51.130;13.978;2023-01-10T04:22:23;8.80;;;4.63;;
19030;SDS011;9648;51.130;13.978;2023-01-10T04:24:54;8.50;;;4.43;;
19030;SDS011;9648;51.130;13.978;2023-01-10T04:27:21;7.60;;;4.37;;
19030;SDS011;9648;51.130;13.978;2023-01-10T04:29:48;8.77;;;5.18;;
19030;SDS011;9648;51.130;13.978;2023-01-10T04:32:15;8.88;;;4.97;;
19030;SDS011;9648;51.130;13.978;2023-01-10T04:34:41;9.20;;;4.78;;
19030;SDS011;9648;51.130;13.978;2023-01-10T04:37:08;8.88;;;4.93;;
19030;SDS011;9648;51.130;13.978;2023-01-10T04:39:35;7.93;;;4.75;;
19030;SDS011;9648;51.130;13.978;2023-01-10T04:42:03;9.30;;;4.45;;
19030;SDS011;9648;51.130;13.978;2023-01-10T04:44:33;10.60;;;4.83;;
19030;SDS011;9648;51.130;13.978;2023-01-10T04:46:59;7.18;;;4.70;;
19030;SDS011;9648;51.130;13.978;2023-01-10T04:49:26;6.70;;;4.32;;
19030;SDS011;9648;51.130;13.978;2023-01-10T04:51:53;8.60;;;4.93;;
19030;SDS011;9648;51.130;13.978;2023-01-10T04:54:19;8.43;;;4.87;;
19030;SDS011;9648;51.130;13.978;2023-01-10T04:56:47;10.70;;;5.05;;
19030;SDS011;9648;51.130;13.978;2023-01-10T04:59:15;8.70;;;4.80;;
19030;SDS011;9648;51.130;13.978;2023-01-10T05:01:41;7.47;;;4.85;;
19030;SDS011;9648;51.130;13.978;2023-01-10T05:04:08;9.40;;;5.00;;
19030;SDS011;9648;51.130;13.978;2023-01-10T05:06:35;8.13;;;4.72;;
19030;SDS011;9648;51.130;13.978;2023-01-10T05:09:04;9.50;;;4.63;;
19030;SDS011;9648;51.130;13.978;2023-01-10T05:11:31;10.73;;;6.20;;
19030;SDS011;9648;51.130;13.978;2023-01-10T05:13:57;9.73;;;5.60;;
19030;SDS011;9648;51.130;13.978;2023-01-10T05:16:25;10.32;;;6.10;;
19030;SDS011;9648;51.130;13.978;2023-01-10T05:18:52;10.60;;;6.05;;
19030;SDS011;9648;51.130;13.978;2023-01-10T05:21:19;10.48;;;6.00;;
19030;SDS011;9648;51.130;13.978;2023-01-10T05:23:46;8.55;;;5.00;;
19030;SDS011;9648;51.130;13.978;2023-01-10T05:26:13;10.57;;;6.03;;
19030;SDS011;9648;51.130;13.978;2023-01-10T05:28:44;8.80;;;5.38;;
19030;SDS011;9648;51.130;13.978;2023-01-10T05:31:12;7.65;;;5.32;;
19030;SDS011;9648;51.130;13.978;2023-01-10T05:33:46;11.13;;;5.55;;
19030;SDS011;9648;51.130;13.978;2023-01-10T05:36:14;10.77;;;5.40;;
19030;SDS011;9648;51.130;13.978;2023-01-10T05:38:42;9.18;;;5.55;;
19030;SDS011;9648;51.130;13.978;2023-01-10T05:41:09;9.20;;;5.72;;
19030;SDS011;9648;51.130;13.978;2023-01-10T05:43:35;9.10;;;5.57;;
19030;SDS011;9648;51.130;13.978;2023-01-10T05:46:02;10.73;;;5.57;;
19030;SDS011;9648;51.130;13.978;2023-01-10T05:48:33;8.90;;;5.20;;
19030;SDS011;9648;51.130;13.978;2023-01-10T05:51:04;8.07;;;5.30;;
19030;SDS011;9648;51.130;13.978;2023-01-10T05:53:31;10.18;;;5.75;;
19030;SDS011;9648;51.130;13.978;2023-01-10T05:55:59;10.77;;;6.30;;
19030;SDS011;9648;51.130;13.978;2023-01-10T05:58:27;10.63;;;6.00;;
19030;SDS011;9648;51.130;13.978;2023-01-10T06:00:55;10.93;;;6.53;;
19030;SDS011;9648;51.130;13.978;2023-01-10T06:03:23;13.90;;;6.25;;
19030;SDS011;9648;51.130;13.978;2023-01-10T06:05:50;9.35;;;6.05;;
19030;SDS011;9648;51.130;13.978;2023-01-10T06:08:18;9.90;;;5.90;;
19030;SDS011;9648;51.130;13.978;2023-01-10T06:10:45;10.02;;;5.90;;
19030;SDS011;9648;51.130;13.978;2023-01-10T06:13:12;10.32;;;6.50;;
19030;SDS011;9648;51.130;13.978;2023-01-10T06:15:38;10.02;;;6.63;;
19030;SDS011;9648;51.130;13.978;2023-01-10T06:18:05;10.13;;;6.45;;
19030;SDS011;9648;51.130;13.978;2023-01-10T06:20:33;9.27;;;6.38;;
19030;SDS011;9648;51.130;13.978;2023-01-10T06:22:59;12.40;;;7.17;;
19030;SDS011;9648;51.130;13.978;2023-01-10T06:25:30;12.83;;;7.37;;
19030;SDS011;9648;51.130;13.978;2023-01-10T06:27:57;12.70;;;8.43;;
19030;SDS011;9648;51.130;13.978;2023-01-10T06:30:24;10.65;;;6.80;;
19030;SDS011;9648;51.130;13.978;2023-01-10T06:32:58;12.30;;;7.10;;
19030;SDS011;9648;51.130;13.978;2023-01-10T06:35:26;12.38;;;7.60;;
19030;SDS011;9648;51.130;13.978;2023-01-10T06:37:53;11.13;;;6.78;;
19030;SDS011;9648;51.130;13.978;2023-01-10T06:40:19;10.35;;;6.60;;
19030;SDS011;9648;51.130;13.978;2023-01-10T06:42:48;11.20;;;6.70;;
19030;SDS011;9648;51.130;13.978;2023-01-10T06:45:14;11.48;;;6.68;;
19030;SDS011;9648;51.130;13.978;2023-01-10T06:47:41;10.05;;;6.50;;
19030;SDS011;9648;51.130;13.978;2023-01-10T06:50:09;14.45;;;7.65;;
19030;SDS011;9648;51.130;13.978;2023-01-10T06:52:36;14.50;;;7.15;;
19030;SDS011;9648;51.130;13.978;2023-01-10T06:55:03;13.13;;;7.97;;
19030;SDS011;9648;51.130;13.978;2023-01-10T06:57:34;11.20;;;7.13;;
19030;SDS011;9648;51.130;13.978;2023-01-10T07:00:04;10.90;;;7.28;;
19030;SDS011;9648;51.130;13.978;2023-01-10T07:02:34;13.48;;;7.63;;
19030;SDS011;9648;51.130;13.978;2023-01-10T07:05:01;11.48;;;7.45;;
19030;SDS011;9648;51.130;13.978;2023-01-10T07:07:28;12.43;;;6.90;;
19030;SDS011;9648;51.130;13.978;2023-01-10T07:09:55;12.52;;;6.82;;
19030;SDS011;9648;51.130;13.978;2023-01-10T07:12:23;10.65;;;6.88;;
19030;SDS011;9648;51.130;13.978;2023-01-10T07:14:50;10.75;;;6.90;;
19030;SDS011;9648;51.130;13.978;2023-01-10T07:17:18;11.65;;;6.35;;
19030;SDS011;9648;51.130;13.978;2023-01-10T07:19:45;11.35;;;6.82;;
19030;SDS011;9648;51.130;13.978;2023-01-10T07:22:11;11.60;;;6.40;;
19030;SDS011;9648;51.130;13.978;2023-01-10T07:24:38;10.18;;;6.20;;
19030;SDS011;9648;51.130;13.978;2023-01-10T07:27:04;11.77;;;6.70;;
19030;SDS011;9648;51.130;13.978;2023-01-10T07:29:31;12.05;;;6.75;;
19030;SDS011;9648;51.130;13.978;2023-01-10T07:31:58;9.85;;;6.20;;
19030;SDS011;9648;51.130;13.978;2023-01-10T07:34:26;11.48;;;6.60;;
19030;SDS011;9648;51.130;13.978;2023-01-10T07:36:53;9.25;;;6.28;;
19030;SDS011;9648;51.130;13.978;2023-01-10T07:39:20;9.15;;;6.00;;
19030;SDS011;9648;51.130;13.978;2023-01-10T07:41:46;10.48;;;6.45;;
19030;SDS011;9648;51.130;13.978;2023-01-10T07:44:13;11.25;;;6.25;;
19030;SDS011;9648;51.130;13.978;2023-01-10T07:46:41;10.13;;;6.43;;
19030;SDS011;9648;51.130;13.978;2023-01-10T07:49:07;9.43;;;6.28;;
19030;SDS011;9648;51.130;13.978;2023-01-10T07:51:35;9.73;;;6.13;;
19030;SDS011;9648;51.130;13.978;2023-01-10T07:54:02;9.75;;;6.40;;
19030;SDS011;9648;51.130;13.978;2023-01-10T07:56:29;9.55;;;6.45;;
19030;SDS011;9648;51.130;13.978;2023-01-10T07:58:55;11.35;;;6.30;;
19030;SDS011;9648;51.130;13.978;2023-01-10T08:01:22;11.93;;;6.63;;
19030;SDS011;9648;51.130;13.978;2023-01-10T08:03:52;9.55;;;6.47;;
19030;SDS011;9648;51.130;13.978;2023-01-10T08:06:19;11.25;;;6.60;;
19030;SDS011;9648;51.130;13.978;2023-01-10T08:08:47;13.00;;;6.72;;
19030;SDS011;9648;51.130;13.978;2023-01-10T08:11:14;10.43;;;6.70;;
19030;SDS011;9648;51.130;13.978;2023-01-10T08:13:40;11.63;;;6.97;;
19030;SDS011;9648;51.130;13.978;2023-01-10T08:16:07;10.70;;;6.60;;
19030;SDS011;9648;51.130;13.978;2023-01-10T08:18:34;10.00;;;6.97;;
19030;SDS011;9648;51.130;13.978;2023-01-10T08:21:05;12.93;;;7.60;;
19030;SDS011;9648;51.130;13.978;2023-01-10T08:23:32;12.90;;;7.70;;
19030;SDS011;9648;51.130;13.978;2023-01-10T08:26:00;13.23;;;7.60;;
19030;SDS011;9648;51.130;13.978;2023-01-10T08:28:27;10.75;;;7.38;;
19030;SDS011;9648;51.130;13.978;2023-01-10T08:30:54;13.15;;;7.50;;
19030;SDS011;9648;51.130;13.978;2023-01-10T08:33:21;11.67;;;7.53;;
19030;SDS011;9648;51.130;13.978;2023-01-10T08:35:51;11.52;;;7.40;;
19030;SDS011;9648;51.130;13.978;2023-01-10T08:38:18;12.70;;;7.30;;
19030;SDS011;9648;51.130;13.978;2023-01-10T08:40:45;13.18;;;7.50;;
19030;SDS011;9648;51.130;13.978;2023-01-10T08:43:13;11.85;;;7.30;;
19030;SDS011;9648;51.130;13.978;2023-01-10T08:45:40;11.55;;;7.20;;
19030;SDS011;9648;51.130;13.978;2023-01-10T08:48:06;13.37;;;7.40;;
19030;SDS011;9648;51.130;13.978;2023-01-10T08:50:35;13.68;;;7.57;;
19030;SDS011;9648;51.130;13.978;2023-01-10T08:53:04;10.13;;;6.53;;
19030;SDS011;9648;51.130;13.978;2023-01-10T08:55:31;11.53;;;7.00;;
19030;SDS011;9648;51.130;13.978;2023-01-10T08:58:00;8.98;;;6.50;;
19030;SDS011;9648;51.130;13.978;2023-01-10T09:00:28;9.45;;;6.35;;
19030;SDS011;9648;51.130;13.978;2023-01-10T09:02:56;9.88;;;6.15;;
19030;SDS011;9648;51.130;13.978;2023-01-10T09:05:22;11.53;;;6.60;;
19030;SDS011;9648;51.130;13.978;2023-01-10T09:07:50;9.48;;;6.10;;
19030;SDS011;9648;51.130;13.978;2023-01-10T09:10:16;10.75;;;6.72;;
19030;SDS011;9648;51.130;13.978;2023-01-10T09:12:43;10.82;;;6.82;;
19030;SDS011;9648;51.130;13.978;2023-01-10T09:15:24;10.25;;;6.60;;
19030;SDS011;9648;51.130;13.978;2023-01-10T09:17:53;9.38;;;6.13;;
19030;SDS011;9648;51.130;13.978;2023-01-10T09:20:22;10.10;;;6.32;;
19030;SDS011;9648;51.130;13.978;2023-01-10T09:22:49;10.25;;;6.35;;
19030;SDS011;9648;51.130;13.978;2023-01-10T09:25:16;9.37;;;5.87;;
19030;SDS011;9648;51.130;13.978;2023-01-10T09:27:43;10.32;;;6.25;;
19030;SDS011;9648;51.130;13.978;2023-01-10T09:30:10;10.20;;;5.85;;
19030;SDS011;9648;51.130;13.978;2023-01-10T09:32:37;9.90;;;6.10;;
19030;SDS011;9648;51.130;13.978;2023-01-10T09:35:05;10.87;;;6.00;;
19030;SDS011;9648;51.130;13.978;2023-01-10T09:37:32;8.30;;;5.78;;
19030;SDS011;9648;51.130;13.978;2023-01-10T09:39:59;9.63;;;5.97;;
19030;SDS011;9648;51.130;13.978;2023-01-10T09:42:29;9.32;;;5.32;;
19030;SDS011;9648;51.130;13.978;2023-01-10T09:45:11;8.55;;;4.90;;
19030;SDS011;9648;51.130;13.978;2023-01-10T09:47:44;10.33;;;5.10;;
19030;SDS011;9648;51.130;13.978;2023-01-10T09:50:21;7.72;;;4.63;;
19030;SDS011;9648;51.130;13.978;2023-01-10T09:52:54;8.98;;;5.00;;
19030;SDS011;9648;51.130;13.978;2023-01-10T09:55:29;5.97;;;4.03;;
19030;SDS011;9648;51.130;13.978;2023-01-10T09:57:59;7.13;;;3.72;;
19030;SDS011;9648;51.130;13.978;2023-01-10T10:00:32;7.15;;;3.65;;
19030;SDS011;9648;51.130;13.978;2023-01-10T10:03:03;5.88;;;3.00;;
19030;SDS011;9648;51.130;13.978;2023-01-10T10:05:39;6.10;;;2.78;;
19030;SDS011;9648;51.130;13.978;2023-01-10T10:08:07;5.38;;;2.50;;
19030;SDS011;9648;51.130;13.978;2023-01-10T10:10:43;7.07;;;2.40;;
19030;SDS011;9648;51.130;13.978;2023-01-10T10:13:18;4.57;;;2.25;;
19030;SDS011;9648;51.130;13.978;2023-01-10T10:15:49;3.83;;;2.17;;
19030;SDS011;9648;51.130;13.978;2023-01-10T10:18:24;5.18;;;1.85;;
19030;SDS011;9648;51.130;13.978;2023-01-10T10:21:02;3.47;;;1.70;;
19030;SDS011;9648;51.130;13.978;2023-01-10T10:23:43;6.10;;;1.98;;
19030;SDS011;9648;51.130;13.978;2023-01-10T10:26:25;4.32;;;2.00;;
19030;SDS011;9648;51.130;13.978;2023-01-10T10:29:02;5.57;;;2.90;;
19030;SDS011;9648;51.130;13.978;2023-01-10T10:31:49;6.60;;;3.00;;
19030;SDS011;9648;51.130;13.978;2023-01-10T10:34:28;7.07;;;3.50;;
19030;SDS011;9648;51.130;13.978;2023-01-10T10:37:02;7.88;;;2.70;;
19030;SDS011;9648;51.130;13.978;2023-01-10T10:39:35;5.15;;;2.65;;
19030;SDS011;9648;51.130;13.978;2023-01-10T10:42:04;9.13;;;3.38;;
19030;SDS011;9648;51.130;13.978;2023-01-10T10:44:37;8.30;;;3.65;;
19030;SDS011;9648;51.130;13.978;2023-01-10T10:47:10;6.20;;;3.60;;
19030;SDS011;9648;51.130;13.978;2023-01-10T10:49:41;6.00;;;3.10;;
19030;SDS011;9648;51.130;13.978;2023-01-10T10:52:32;8.65;;;3.88;;
19030;SDS011;9648;51.130;13.978;2023-01-10T10:55:01;6.60;;;3.72;;
19030;SDS011;9648;51.130;13.978;2023-01-10T10:57:49;7.60;;;4.05;;
19030;SDS011;9648;51.130;13.978;2023-01-10T11:00:16;6.72;;;3.70;;
19030;SDS011;9648;51.130;13.978;2023-01-10T11:02:47;7.43;;;4.00;;
19030;SDS011;9648;51.130;13.978;2023-01-10T11:05:19;8.37;;;3.80;;
19030;SDS011;9648;51.130;13.978;2023-01-10T11:08:08;9.40;;;4.05;;
19030;SDS011;9648;51.130;13.978;2023-01-10T11:10:38;5.40;;;3.67;;
19030;SDS011;9648;51.130;13.978;2023-01-10T11:13:26;10.13;;;4.00;;
19030;SDS011;9648;51.130;13.978;2023-01-10T11:16:01;8.45;;;3.55;;
19030;SDS011;9648;51.130;13.978;2023-01-10T11:18:51;8.55;;;3.53;;
19030;SDS011;9648;51.130;13.978;2023-01-10T11:21:36;6.03;;;2.90;;
19030;SDS011;9648;51.130;13.978;2023-01-10T11:24:12;5.72;;;2.80;;
19030;SDS011;9648;51.130;13.978;2023-01-10T11:26:49;8.35;;;3.85;;
19030;SDS011;9648;51.130;13.978;2023-01-10T11:29:17;8.50;;;3.30;;
19030;SDS011;9648;51.130;13.978;2023-01-10T11:31:47;6.40;;;2.45;;
19030;SDS011;9648;51.130;13.978;2023-01-10T11:34:20;6.05;;;2.80;;
19030;SDS011;9648;51.130;13.978;2023-01-10T11:36:53;5.00;;;2.42;;
19030;SDS011;9648;51.130;13.978;2023-01-10T11:39:23;9.38;;;2.40;;
19030;SDS011;9648;51.130;13.978;2023-01-10T11:41:50;5.13;;;2.30;;
19030;SDS011;9648;51.130;13.978;2023-01-10T11:44:20;7.10;;;2.60;;
19030;SDS011;9648;51.130;13.978;2023-01-10T11:46:49;6.60;;;2.50;;
19030;SDS011;9648;51.130;13.978;2023-01-10T11:49:22;5.65;;;2.72;;
19030;SDS011;9648;51.130;13.978;2023-01-10T11:51:55;10.32;;;2.95;;
19030;SDS011;9648;51.130;13.978;2023-01-10T11:54:27;7.22;;;2.55;;
19030;SDS011;9648;51.130;13.978;2023-01-10T11:56:55;8.30;;;2.90;;
19030;SDS011;9648;51.130;13.978;2023-01-10T11:59:23;7.65;;;2.50;;
19030;SDS011;9648;51.130;13.978;2023-01-10T12:01:53;6.72;;;2.33;;
19030;SDS011;9648;51.130;13.978;2023-01-10T12:04:24;7.50;;;2.50;;
19030;SDS011;9648;51.130;13.978;2023-01-10T12:06:54;8.73;;;2.85;;
19030;SDS011;9648;51.130;13.978;2023-01-10T12:09:33;7.28;;;2.90;;
19030;SDS011;9648;51.130;13.978;2023-01-10T12:12:02;7.13;;;2.97;;
19030;SDS011;9648;51.130;13.978;2023-01-10T12:14:29;7.20;;;3.03;;
19030;SDS011;9648;51.130;13.978;2023-01-10T12:16:57;6.82;;;3.35;;
19030;SDS011;9648;51.130;13.978;2023-01-10T12:19:25;7.53;;;3.22;;
19030;SDS011;9648;51.130;13.978;2023-01-10T12:21:53;9.50;;;3.20;;
19030;SDS011;9648;51.130;13.978;2023-01-10T12:24:23;6.57;;;2.70;;
19030;SDS011;9648;51.130;13.978;2023-01-10T12:26:54;7.07;;;2.75;;
19030;SDS011;9648;51.130;13.978;2023-01-10T12:29:23;8.05;;;2.70;;
19030;SDS011;9648;51.130;13.978;2023-01-10T12:31:52;9.55;;;3.00;;
19030;SDS011;9648;51.130;13.978;2023-01-10T12:34:22;8.85;;;2.85;;
19030;SDS011;9648;51.130;13.978;2023-01-10T12:36:54;8.90;;;2.80;;
19030;SDS011;9648;51.130;13.978;2023-01-10T12:39:27;7.03;;;2.67;;
19030;SDS011;9648;51.130;13.978;2023-01-10T12:42:03;7.30;;;2.60;;
19030;SDS011;9648;51.130;13.978;2023-01-10T12:45:02;7.27;;;2.50;;
19030;SDS011;9648;51.130;13.978;2023-01-10T12:47:32;8.27;;;2.47;;
19030;SDS011;9648;51.130;13.978;2023-01-10T12:50:09;12.10;;;2.65;;
19030;SDS011;9648;51.130;13.978;2023-01-10T12:52:40;9.95;;;2.55;;
19030;SDS011;9648;51.130;13.978;2023-01-10T12:55:12;10.57;;;2.78;;
19030;SDS011;9648;51.130;13.978;2023-01-10T12:57:41;6.07;;;2.22;;
19030;SDS011;9648;51.130;13.978;2023-01-10T13:00:15;8.90;;;2.55;;
19030;SDS011;9648;51.130;13.978;2023-01-10T13:02:48;8.63;;;2.55;;
19030;SDS011;9648;51.130;13.978;2023-01-10T13:05:19;9.13;;;2.28;;
19030;SDS011;9648;51.130;13.978;2023-01-10T13:07:47;7.97;;;2.63;;
19030;SDS011;9648;51.130;13.978;2023-01-10T13:10:17;8.18;;;2.35;;
19030;SDS011;9648;51.130;13.978;2023-01-10T13:12:50;10.85;;;2.70;;
19030;SDS011;9648;51.130;13.978;2023-01-10T13:15:22;8.23;;;2.20;;
19030;SDS011;9648;51.130;13.978;2023-01-10T13:17:52;7.60;;;2.27;;
19030;SDS011;9648;51.130;13.978;2023-01-10T13:20:28;7.80;;;2.25;;
19030;SDS011;9648;51.130;13.978;2023-01-10T13:23:18;6.00;;;2.05;;
19030;SDS011;9648;51.130;13.978;2023-01-10T13:25:55;8.47;;;2.23;;
19030;SDS011;9648;51.130;13.978;2023-01-10T13:28:31;10.48;;;2.80;;
19030;SDS011;9648;51.130;13.978;2023-01-10T13:31:00;7.63;;;2.30;;
19030;SDS011;9648;51.130;13.978;2023-01-10T13:33:29;8.48;;;2.30;;
19030;SDS011;9648;51.130;13.978;2023-01-10T13:35:57;6.33;;;2.30;;
19030;SDS011;9648;51.130;13.978;2023-01-10T13:38:35;6.85;;;2.10;;
19030;SDS011;9648;51.130;13.978;2023-01-10T13:41:09;8.15;;;2.30;;
19030;SDS011;9648;51.130;13.978;2023-01-10T13:44:05;9.52;;;2.28;;
19030;SDS011;9648;51.130;13.978;2023-01-10T13:46:37;7.20;;;2.50;;
19030;SDS011;9648;51.130;13.978;2023-01-10T13:55:22;5.95;;;2.10;;
19030;SDS011;9648;51.130;13.978;2023-01-10T13:57:59;7.43;;;1.90;;
19030;SDS011;9648;51.130;13.978;2023-01-10T14:00:45;8.25;;;2.20;;
19030;SDS011;9648;51.130;13.978;2023-01-10T14:03:37;9.30;;;2.22;;
19030;SDS011;9648;51.130;13.978;2023-01-10T14:06:07;5.82;;;2.40;;
19030;SDS011;9648;51.130;13.978;2023-01-10T14:08:39;6.07;;;2.40;;
19030;SDS011;9648;51.130;13.978;2023-01-10T14:11:06;9.02;;;2.40;;
19030;SDS011;9648;51.130;13.978;2023-01-10T14:13:35;7.53;;;2.30;;
19030;SDS011;9648;51.130;13.978;2023-01-10T14:16:04;5.78;;;2.03;;
19030;SDS011;9648;51.130;13.978;2023-01-10T14:18:33;6.97;;;2.50;;
19030;SDS011;9648;51.130;13.978;2023-01-10T14:21:03;9.13;;;2.42;;
19030;SDS011;9648;51.130;13.978;2023-01-10T14:23:33;9.52;;;2.40;;
19030;SDS011;9648;51.130;13.978;2023-01-10T14:26:02;5.90;;;2.00;;
19030;SDS011;9648;51.130;13.978;2023-01-10T14:28:30;9.25;;;2.22;;
19030;SDS011;9648;51.130;13.978;2023-01-10T14:31:00;7.00;;;2.30;;
19030;SDS011;9648;51.130;13.978;2023-01-10T14:33:30;7.10;;;2.23;;
19030;SDS011;9648;51.130;13.978;2023-01-10T14:35:59;9.88;;;2.20;;
19030;SDS011;9648;51.130;13.978;2023-01-10T14:38:29;6.55;;;2.50;;
19030;SDS011;9648;51.130;13.978;2023-01-10T14:40:59;5.80;;;2.30;;
19030;SDS011;9648;51.130;13.978;2023-01-10T14:43:30;7.65;;;2.30;;
19030;SDS011;9648;51.130;13.978;2023-01-10T14:46:09;7.45;;;2.30;;
19030;SDS011;9648;51.130;13.978;2023-01-10T14:48:40;7.72;;;2.80;;
19030;SDS011;9648;51.130;13.978;2023-01-10T14:51:17;8.65;;;2.63;;
19030;SDS011;9648;51.130;13.978;2023-01-10T14:53:46;7.78;;;2.90;;
19030;SDS011;9648;51.130;13.978;2023-01-10T14:56:20;8.15;;;3.65;;
19030;SDS011;9648;51.130;13.978;2023-01-10T14:58:48;9.07;;;3.17;;
19030;SDS011;9648;51.130;13.978;2023-01-10T15:01:20;5.15;;;2.80;;
19030;SDS011;9648;51.130;13.978;2023-01-10T15:03:51;11.88;;;5.22;;
19030;SDS011;9648;51.130;13.978;2023-01-10T15:06:21;8.13;;;4.45;;
19030;SDS011;9648;51.130;13.978;2023-01-10T15:08:56;10.10;;;4.10;;
19030;SDS011;9648;51.130;13.978;2023-01-10T15:11:24;9.63;;;3.20;;
19030;SDS011;9648;51.130;13.978;2023-01-10T15:13:52;8.38;;;2.80;;